WetterOnline ( https://www.wetteronline.de )

Wetter aktuell Trier

Aktuelles Wetter: Trier/Petrisberg (273m)

6-stündlich | Neueste Meldungen
Ortszeit Temperatur Wetter
Mo, 22.07. 2:00 19.4° C bewölkt
So, 21.07. 20:00 24.1° C fast wolkenlos
So, 21.07. 14:00 24.1° C wolkig
So, 21.07. 8:00 19.6° C bedeckt
So, 21.07. 2:00 20.9° C bewölkt
Sa, 20.07. 20:00 27.1° C wolkig
Sa, 20.07. 14:00 30.5° C leicht bewölkt
Sa, 20.07. 8:00 17.9° C wolkenlos
Ortszeit Temperatur Wetter
Mo, 22.07. 4:30 18.6° C bewölkt
Mo, 22.07. 4:20 18.6° C bewölkt
Mo, 22.07. 4:10 18.7° C bewölkt
Mo, 22.07. 4:00 18.5° C bewölkt
Mo, 22.07. 3:50 18.5° C bewölkt
Mo, 22.07. 3:40 18.4° C bewölkt
Mo, 22.07. 3:30 18.9° C bewölkt
Mo, 22.07. 3:00 19.1° C wolkig
Mo, 22.07. 2:30 19.2° C bewölkt
Mo, 22.07. 2:00 19.4° C bewölkt
Mo, 22.07. 1:30 19.5° C bedeckt
Ortszeit Relative Feuchte Sichtweite
Mo, 22.07. 2:00 90% 40 km
So, 21.07. 20:00 61% 60 km
So, 21.07. 14:00 63% 55 km
So, 21.07. 8:00 87% 50 km
So, 21.07. 2:00 75% 50 km
Sa, 20.07. 20:00 57% 50 km
Sa, 20.07. 14:00 43% 45 km
Sa, 20.07. 8:00 87% 30 km
Ortszeit Relative Feuchte Sichtweite
Mo, 22.07. 4:30 90% 40 km
Mo, 22.07. 4:20 90% -
Mo, 22.07. 4:10 90% -
Mo, 22.07. 4:00 92% 35 km
Mo, 22.07. 3:50 92% -
Mo, 22.07. 3:40 91% -
Mo, 22.07. 3:30 90% 40 km
Mo, 22.07. 3:00 89% 40 km
Mo, 22.07. 2:30 88% 45 km
Mo, 22.07. 2:00 90% 40 km
Mo, 22.07. 1:30 88% 40 km
Ortszeit Niederschlagsmenge Niederschlagsart
Mo, 22.07. 2:00 0.3 l/m2 in 6 Std. Regen
So, 21.07. 20:00 0.0 l/m2 in 12 Std. -
So, 21.07. 14:00 0.0 l/m2 in 6 Std. -
So, 21.07. 8:00 0.2 l/m2 in 12 Std. Regen
So, 21.07. 2:00 0.0 l/m2 in 6 Std. -
Sa, 20.07. 20:00 0.1 l/m2 in 12 Std. Regen
Sa, 20.07. 14:00 0.0 l/m2 in 6 Std. -
Sa, 20.07. 8:00 0.0 l/m2 in 12 Std. -
Ortszeit Niederschlagsmenge Niederschlagsart
Mo, 22.07. 4:30 0.0 l/m2 in 30 Min -
Mo, 22.07. 4:20 keine Meldung -
Mo, 22.07. 4:10 keine Meldung -
Mo, 22.07. 4:00 0.0 l/m2 in 1 Std. -
Mo, 22.07. 3:50 keine Meldung -
Mo, 22.07. 3:40 keine Meldung -
Mo, 22.07. 3:30 0.0 l/m2 in 30 Min -
Mo, 22.07. 3:00 0.0 l/m2 in 1 Std. -
Mo, 22.07. 2:30 0.0 l/m2 in 30 Min -
Mo, 22.07. 2:00 <0.05 l/m2 in 1 Std. Regen
Mo, 22.07. 1:30 <0.05 l/m2 in 30 Min Schneeregen
Ortszeit Stärke Spitze Richtung
km/h Bft. km/h Grad Sektor
Mo, 22.07. 2:00 7 2 25 240° SW
So, 21.07. 20:00 11 2 25 210° SW
So, 21.07. 14:00 11 2 29 230° SW
So, 21.07. 8:00 6 1 35 110° O
So, 21.07. 2:00 2 1 15 150° SO
Sa, 20.07. 20:00 4 1 36 170° S
Sa, 20.07. 14:00 9 2 28 210° SW
Sa, 20.07. 8:00 0 0 14 - -
Ortszeit Stärke Spitze Richtung
km/h Bft. km/h Grad Sektor
Mo, 22.07. 4:30 9 2 15 250° W
Mo, 22.07. 4:20 9 2 - 250° W
Mo, 22.07. 4:10 9 2 - 250° W
Mo, 22.07. 4:00 9 2 15 220° SW
Mo, 22.07. 3:50 9 2 - 220° SW
Mo, 22.07. 3:40 11 2 - 220° SW
Mo, 22.07. 3:30 7 2 14 230° SW
Mo, 22.07. 3:00 9 2 17 240° SW
Mo, 22.07. 2:30 7 2 13 240° SW
Mo, 22.07. 2:00 7 2 14 240° SW
Mo, 22.07. 1:30 4 1 11 240° SW
Ortszeit Untergrenze Bedeckung Gattung
total tief tief mittel hoch
Mo, 22.07. 2:00 900 m 8/8 7/8 - - -
So, 21.07. 20:00 1800 m 1/8 1/8 - - -
So, 21.07. 14:00 2100 m 8/8 1/8 - - -
So, 21.07. 8:00 3600 m 8/8 8/8 - - -
So, 21.07. 2:00 6900 m 8/8 4/8 - - -
Sa, 20.07. 20:00 4500 m 8/8 1/8 - - -
Sa, 20.07. 14:00 3000 m 3/8 1/8 - - -
Sa, 20.07. 8:00 - 0/8 0/8 - - -
Ortszeit Bedeckungsgrad in Achtel und Wolkenuntergrenze
Mo, 22.07. 4:30 7(270m) 7(840m) 7(5400m)
Mo, 22.07. 4:20 7(270m) 7(840m) 7(5400m)
Mo, 22.07. 4:10 7
Mo, 22.07. 4:00 5(840m) 6(5700m) 8(6900m)
Mo, 22.07. 3:50 5(840m) 6(5700m) 8(6900m)
Mo, 22.07. 3:40 7
Mo, 22.07. 3:30 1(390m) 7(2700m) 7(7200m)
Mo, 22.07. 3:00 3(1290m) 8(3600m) 8(7200m)
Mo, 22.07. 2:30 4(1200m) 7(1800m) 8(3000m)
Mo, 22.07. 2:00 4(900m) 7(1440m) 8(3000m)
Mo, 22.07. 1:30 2(750m) 7(1470m) 8(1500m)
Ortszeit Luftdruck NN (hPa) Tendenz (hPa in 3 Std.)
Mo, 22.07. 2:00 1014 + 1,5
So, 21.07. 20:00 1010 + 0,2
So, 21.07. 14:00 1009 + 0,6
So, 21.07. 8:00 1008 - 0,2
So, 21.07. 2:00 1007 - 0,5
Sa, 20.07. 20:00 1006 - 1,1
Sa, 20.07. 14:00 1009 - 1,4
Sa, 20.07. 8:00 1013 - 0,5
Ortszeit Luftdruck NN (hPa) Tendenz (hPa in 3 Std.)
Mo, 22.07. 4:30 1015 + 1,0
Mo, 22.07. 4:20 1015 keine Meldung
Mo, 22.07. 4:10 1015 keine Meldung
Mo, 22.07. 4:00 1015 + 0,9
Mo, 22.07. 3:50 1015 keine Meldung
Mo, 22.07. 3:40 1015 keine Meldung
Mo, 22.07. 3:30 1015 + 1,1
Mo, 22.07. 3:00 1014 + 1,1
Mo, 22.07. 2:30 1014 + 1,3
Mo, 22.07. 2:00 1014 + 1,5
Mo, 22.07. 1:30 1014 + 1,6
Ortszeit Schneehöhe (cm)
Mo, 22.07. 2:00 0
So, 21.07. 20:00 0
So, 21.07. 14:00 0
So, 21.07. 8:00 0
So, 21.07. 2:00 0
Sa, 20.07. 20:00 0
Sa, 20.07. 14:00 0
Sa, 20.07. 8:00 0
Ortszeit Schneehöhe (cm)
Mo, 22.07. 4:30 0
Mo, 22.07. 4:20 0
Mo, 22.07. 4:10 -
Mo, 22.07. 4:00 0
Mo, 22.07. 3:50 0
Mo, 22.07. 3:40 -
Mo, 22.07. 3:30 0
Mo, 22.07. 3:00 0
Mo, 22.07. 2:30 0
Mo, 22.07. 2:00 0
Mo, 22.07. 1:30 0
Link zu dieser Seite / Seite empfehlen

Das Wetter in ...